This is the latest recevied weather packets stored in our database for station/object EA2CW-13. If no packets are shown the sender has not sent any weather packets the latest 10 day(s).
| Time | Temp. | Humidity | Pressure | Rain* | Wind** | Luminosity | Snow |
|---|---|---|---|---|---|---|---|
| 1777464574 | 27.22° C | 48% | 1043.6 hPa | - | - | 79 W/m² | - |
| 1777463638 | 26.11° C | 51% | 1043.9 hPa | - | - | 79 W/m² | - |
| 1777462702 | 24.44° C | 54% | 1044.2 hPa | - | - | 57 W/m² | - |
| 1777461766 | 24.44° C | 54% | 1044.3 hPa | - | - | 56 W/m² | - |
| 1777460830 | 25.56° C | 54% | 1044.5 hPa | - | - | 77 W/m² | - |
| 1777459894 | 23.89° C | 56% | 1044.7 hPa | - | - | 58 W/m² | - |
| 1777458958 | 24.44° C | 59% | 1044.7 hPa | - | - | 76 W/m² | - |
| 1777458022 | 23.89° C | 63% | 1045.1 hPa | - | - | 72 W/m² | - |
| 1777457087 | 22.78° C | 64% | 1045.2 hPa | - | - | 68 W/m² | - |
| 1777456151 | 21.11° C | 68% | 1045.2 hPa | - | - | 42 W/m² | - |
| 1777455214 | 21.67° C | 72% | 1045.4 hPa | - | - | 48 W/m² | - |
| 1777454279 | 22.22° C | 75% | 1045.5 hPa | - | - | 55 W/m² | - |
| 1777453343 | 20.56° C | 78% | 1045.4 hPa | - | - | 36 W/m² | - |
| 1777452407 | 20° C | 82% | 1045.5 hPa | - | - | 36 W/m² | - |
| 1777451471 | 19.44° C | 85% | 1045.6 hPa | - | - | 33 W/m² | - |
| 1777450535 | 18.33° C | 86% | 1045.6 hPa | - | - | 24 W/m² | - |
| 1777449599 | 17.78° C | 86% | 1045.8 hPa | - | - | 10 W/m² | - |
| 1777448663 | 17.78° C | 86% | 1045.7 hPa | - | - | 9 W/m² | - |
| 1777447727 | 17.78° C | 86% | 1045.8 hPa | - | - | 11 W/m² | - |
| 1777446791 | 17.78° C | 87% | 1045.7 hPa | - | - | 7 W/m² | - |
| 1777445855 | 18.33° C | 88% | 1045.6 hPa | - | - | 13 W/m² | - |
| 1777444919 | 17.78° C | 90% | 1045.6 hPa | - | - | 8 W/m² | - |
| 1777443983 | 17.22° C | 91% | 1045.5 hPa | - | - | 5 W/m² | - |
| 1777443047 | 17.22° C | 92% | 1045.4 hPa | - | - | 3 W/m² | - |
| 1777442111 | 16.67° C | 93% | 1045.5 hPa | - | - | 2 W/m² | - |
* Rain since midnight (hover to see other rain measurements)
** Current wind speed in m/s (hover to see current wind gust speed)